Change the Weather History Date:

Sunday, August 17, 2014

  Actual Average Record
Temperature  
Mean Temperature 78 °F -  
Max Temperature 84 °F 82 °F 100 °F (1978)
Min Temperature 73 °F 72 °F 61 °F (1972)
Cooling Degree Days 14    
Growing Degree Days 28 (Base 50)    
Moisture  
Dew Point 71 °F    
Average Humidity 78    
Maximum Humidity 100    
Minimum Humidity 66    
Precipitation  
Precipitation 0.00 in - - ()
Sea Level Pressure  
Sea Level Pressure 29.96 in    
Wind  
Wind Speed 6 mph (West)    
Max Wind Speed 9 mph    
Max Gust Speed -    
Visibility 10 miles    
Events Rain    
Averages and records for this station are not official NWS values.
T = Trace of Precipitation, MM = Missing Value Source: NWS Daily Summary

Daily Weather History Graph

Daily Weather History Graph

Search for Another Location

Airport or City:

Trip Planner

Search our weather history database for the weather conditions in past years. The results will help you decide how hot, cold, wet, or windy it might be!

Date:

Astronomy

Aug. 17, 2014 Rise Set
Actual Time 6:22 AM EDT 7:50 PM EDT
Civil Twilight 5:55 AM EDT 8:17 PM EDT
Nautical Twilight 5:23 AM EDT 8:49 PM EDT
Astronomical Twilight 4:49 AM EDT 9:23 PM EDT
Moon No Moon Rise 1:51 PM EDT (8/17)
Length of Visible Light 14h 21m
Length of Day
13h 27m
Waning Gibbous, 48% of the Moon is Illuminated
Aug 17
Waning Gibbous
Aug 25
New
Sep 2
First Quarter
Sep 8
Full
Sep 15
Last Quarter

Hourly Weather History & Observations

Time (EDT) Temp. Heat Index Dew Point Humidity Pressure Visibility Wind Dir Wind Speed Gust Speed Precip Events Conditions
12:00 AM 77.0 °F - 68.0 °F 74% 30.01 in 10.0 mi SSW 9.2 mph - N/A   Overcast
12:20 AM 77.0 °F - 68.0 °F 74% 30.01 in 10.0 mi SW 9.2 mph - N/A   Overcast
12:40 AM 77.0 °F - 68.0 °F 74% 30.01 in 10.0 mi SSW 8.1 mph - N/A   Mostly Cloudy
1:00 AM 75.2 °F - 68.0 °F 78% 30.00 in 10.0 mi SW 8.1 mph - N/A   Scattered Clouds
1:20 AM 75.2 °F - 68.0 °F 78% 30.00 in 10.0 mi SW 9.2 mph - N/A   Clear
2:00 AM 75.2 °F - 69.8 °F 83% 29.99 in 10.0 mi SW 6.9 mph - N/A   Clear
2:20 AM 75.2 °F - 69.8 °F 83% 29.98 in 10.0 mi SW 6.9 mph - N/A   Clear
2:40 AM 75.2 °F - 69.8 °F 83% 29.98 in 10.0 mi SW 5.8 mph - N/A   Clear
3:01 AM 75.2 °F - 69.8 °F 83% 29.98 in 10.0 mi SW 6.9 mph - N/A   Clear
3:20 AM 75.2 °F - 71.6 °F 89% 29.98 in 10.0 mi SW 4.6 mph - N/A   Clear
3:40 AM 75.2 °F - 71.6 °F 89% 29.98 in 10.0 mi SW 5.8 mph - N/A   Clear
4:00 AM 75.2 °F - 71.6 °F 89% 29.98 in 10.0 mi SW 5.8 mph - N/A   Clear
4:21 AM 75.2 °F - 71.6 °F 89% 29.97 in 10.0 mi WSW 5.8 mph - N/A   Clear
4:40 AM 75.2 °F - 71.6 °F 89% 29.97 in 10.0 mi WSW 4.6 mph - N/A   Clear
5:00 AM 75.2 °F - 71.6 °F 89% 29.97 in 10.0 mi WSW 4.6 mph - N/A   Clear
5:20 AM 73.4 °F - 71.6 °F 94% 29.97 in 10.0 mi WSW 3.5 mph - N/A   Clear
5:40 AM 73.4 °F - 71.6 °F 94% 29.97 in 10.0 mi West 3.5 mph - N/A   Clear
6:00 AM 73.4 °F - 71.6 °F 94% 29.97 in 10.0 mi WSW 5.8 mph - N/A   Clear
6:20 AM 73.4 °F - 73.4 °F 100% 29.97 in 10.0 mi WSW 5.8 mph - N/A   Clear
6:40 AM 73.4 °F - 71.6 °F 94% 29.98 in 10.0 mi SW 5.8 mph - N/A   Clear
7:00 AM 73.4 °F - 73.4 °F 100% 29.98 in 10.0 mi SW 3.5 mph - N/A   Scattered Clouds
7:20 AM 75.2 °F - 73.4 °F 94% 29.98 in 10.0 mi WSW 5.8 mph - N/A   Mostly Cloudy
7:40 AM 75.2 °F - 73.4 °F 94% 29.98 in 10.0 mi WSW 4.6 mph - N/A   Mostly Cloudy
8:00 AM 75.2 °F - 73.4 °F 94% 29.99 in 10.0 mi WSW 6.9 mph - N/A   Overcast
8:20 AM 75.2 °F - 73.4 °F 94% 29.98 in 10.0 mi WSW 4.6 mph - N/A   Mostly Cloudy
8:40 AM 77.0 °F - 73.4 °F 89% 29.98 in 10.0 mi WSW 5.8 mph - N/A   Scattered Clouds
9:00 AM 77.0 °F - 73.4 °F 89% 29.98 in 10.0 mi WSW 4.6 mph - N/A   Clear
9:20 AM 78.8 °F - 73.4 °F 83% 29.97 in 10.0 mi West 3.5 mph - N/A   Clear
9:40 AM 78.8 °F - 73.4 °F 83% 29.98 in 10.0 mi West 5.8 mph - N/A   Clear
10:00 AM 78.8 °F - 71.6 °F 78% 29.98 in 10.0 mi West 4.6 mph - N/A   Clear
10:20 AM 80.6 °F 84.6 °F 71.6 °F 74% 29.98 in 10.0 mi Calm Calm - N/A   Clear
10:40 AM 80.6 °F 84.6 °F 71.6 °F 74% 29.99 in 10.0 mi West 3.5 mph - N/A   Clear
11:00 AM 80.6 °F 85.4 °F 73.4 °F 79% 29.99 in 10.0 mi WSW 4.6 mph - N/A   Clear
11:20 AM 80.6 °F 84.6 °F 71.6 °F 74% 29.98 in 10.0 mi South 3.5 mph - N/A   Clear
11:40 AM 82.4 °F 87.2 °F 71.6 °F 70% 29.98 in 10.0 mi West 4.6 mph - N/A   Clear
12:20 PM 84.2 °F 89.6 °F 71.6 °F 66% 29.98 in 10.0 mi West 9.2 mph - N/A   Clear
12:40 PM 84.2 °F 89.6 °F 71.6 °F 66% 29.97 in 10.0 mi WNW 4.6 mph - N/A   Clear
1:00 PM 82.4 °F 87.2 °F 71.6 °F 70% 29.97 in 10.0 mi WNW 4.6 mph - N/A   Clear
1:20 PM 82.4 °F 87.2 °F 71.6 °F 70% 29.96 in 10.0 mi NNW 4.6 mph - N/A   Light Drizzle
1:40 PM 82.4 °F 88.2 °F 73.4 °F 74% 29.96 in 10.0 mi WNW 4.6 mph - N/A   Clear
2:00 PM 84.2 °F 89.6 °F 71.6 °F 66% 29.95 in 10.0 mi WNW 3.5 mph - N/A   Clear
2:20 PM 84.2 °F 89.6 °F 71.6 °F 66% 29.95 in 10.0 mi West 3.5 mph - N/A   Clear
2:40 PM 84.2 °F 89.6 °F 71.6 °F 66% 29.94 in 10.0 mi Calm Calm - N/A   Clear
3:00 PM 84.2 °F 89.6 °F 71.6 °F 66% 29.94 in 10.0 mi WNW 4.6 mph - N/A   Clear
3:20 PM 82.4 °F 88.2 °F 73.4 °F 74% 29.93 in 10.0 mi NNW 4.6 mph - N/A   Scattered Clouds
3:40 PM 82.4 °F 88.2 °F 73.4 °F 74% 29.93 in 10.0 mi NNW 3.5 mph - N/A Rain Light Rain
4:00 PM 82.4 °F 88.2 °F 73.4 °F 74% 29.93 in 10.0 mi Calm Calm - N/A   Mostly Cloudy
4:20 PM 82.4 °F 88.2 °F 73.4 °F 74% 29.93 in 10.0 mi NNW 4.6 mph - N/A   Scattered Clouds
4:40 PM 82.4 °F 87.2 °F 71.6 °F 70% 29.93 in 10.0 mi North 4.6 mph - N/A   Scattered Clouds
5:00 PM 82.4 °F 88.2 °F 73.4 °F 74% 29.92 in 10.0 mi NNW 4.6 mph - N/A   Clear
5:20 PM 84.2 °F 89.6 °F 71.6 °F 66% 29.92 in 10.0 mi NNW 4.6 mph - N/A   Clear
5:40 PM 82.4 °F 87.2 °F 71.6 °F 70% 29.92 in 10.0 mi WNW 3.5 mph - N/A   Clear
6:00 PM 82.4 °F 87.2 °F 71.6 °F 70% 29.93 in 10.0 mi NNW 4.6 mph - N/A   Clear
6:20 PM 82.4 °F 87.2 °F 71.6 °F 70% 29.93 in 10.0 mi WNW 5.8 mph - N/A   Clear
6:40 PM 82.4 °F 87.2 °F 71.6 °F 70% 29.92 in 10.0 mi WNW 3.5 mph - N/A   Clear
7:00 PM 82.4 °F 86.3 °F 69.8 °F 66% 29.93 in 10.0 mi NW 4.6 mph - N/A   Clear
7:20 PM 80.6 °F 83.9 °F 69.8 °F 70% 29.93 in 10.0 mi West 4.6 mph - N/A   Clear
7:40 PM 80.6 °F 83.9 °F 69.8 °F 70% 29.94 in 10.0 mi WNW 4.6 mph - N/A   Clear
8:01 PM 80.6 °F 83.9 °F 69.8 °F 70% 29.93 in 10.0 mi West 3.5 mph - N/A   Clear
8:20 PM 80.6 °F 83.9 °F 69.8 °F 70% 29.93 in 10.0 mi West 4.6 mph - N/A   Clear
8:40 PM 80.6 °F 84.6 °F 71.6 °F 74% 29.93 in 10.0 mi WSW 3.5 mph - N/A   Clear
9:00 PM 80.6 °F 84.6 °F 71.6 °F 74% 29.93 in 10.0 mi Calm Calm - N/A   Clear
9:20 PM 78.8 °F - 71.6 °F 78% 29.93 in 10.0 mi WSW 3.5 mph - N/A   Clear
9:40 PM 78.8 °F - 71.6 °F 78% 29.94 in 10.0 mi WSW 3.5 mph - N/A   Clear
10:00 PM 78.8 °F - 69.8 °F 74% 29.94 in 10.0 mi WSW 3.5 mph - N/A   Clear
10:20 PM 78.8 °F - 71.6 °F 78% 29.94 in 10.0 mi SW 3.5 mph - N/A   Clear
10:40 PM 78.8 °F - 71.6 °F 78% 29.94 in 10.0 mi SW 4.6 mph - N/A   Clear
11:00 PM 78.8 °F - 69.8 °F 74% 29.94 in 10.0 mi WSW 3.5 mph - N/A   Clear
11:20 PM 78.8 °F - 69.8 °F 74% 29.94 in 10.0 mi West 3.5 mph - N/A   Clear
11:40 PM 77.0 °F - 69.8 °F 78% 29.94 in 10.0 mi Calm Calm - N/A   Clear